sensor_id;sensor_type;location;lat;lon;timestamp;P1;durP1;ratioP1;P2;durP2;ratioP2
49416;SDS011;35290;39.550;8.786;2022-11-13T00:00:33;17.80;;;10.48;;
49416;SDS011;35290;39.550;8.786;2022-11-13T00:02:59;18.13;;;10.20;;
49416;SDS011;35290;39.550;8.786;2022-11-13T00:05:25;20.02;;;10.20;;
49416;SDS011;35290;39.550;8.786;2022-11-13T00:07:50;16.48;;;9.68;;
49416;SDS011;35290;39.550;8.786;2022-11-13T00:10:16;20.13;;;9.68;;
49416;SDS011;35290;39.550;8.786;2022-11-13T00:12:41;17.10;;;9.10;;
49416;SDS011;35290;39.550;8.786;2022-11-13T00:15:07;16.40;;;9.45;;
49416;SDS011;35290;39.550;8.786;2022-11-13T00:17:33;18.35;;;9.25;;
49416;SDS011;35290;39.550;8.786;2022-11-13T00:19:58;20.60;;;9.23;;
49416;SDS011;35290;39.550;8.786;2022-11-13T00:22:23;15.20;;;8.60;;
49416;SDS011;35290;39.550;8.786;2022-11-13T00:24:49;15.20;;;8.52;;
49416;SDS011;35290;39.550;8.786;2022-11-13T00:27:14;10.93;;;7.40;;
49416;SDS011;35290;39.550;8.786;2022-11-13T00:29:40;13.65;;;7.38;;
49416;SDS011;35290;39.550;8.786;2022-11-13T00:32:05;12.43;;;7.20;;
49416;SDS011;35290;39.550;8.786;2022-11-13T00:34:31;15.02;;;7.38;;
49416;SDS011;35290;39.550;8.786;2022-11-13T00:36:56;14.95;;;6.32;;
49416;SDS011;35290;39.550;8.786;2022-11-13T00:39:22;11.85;;;6.20;;
49416;SDS011;35290;39.550;8.786;2022-11-13T00:41:47;9.15;;;6.30;;
49416;SDS011;35290;39.550;8.786;2022-11-13T00:44:12;10.65;;;5.82;;
49416;SDS011;35290;39.550;8.786;2022-11-13T00:46:38;10.98;;;5.72;;
49416;SDS011;35290;39.550;8.786;2022-11-13T00:49:03;12.80;;;6.65;;
49416;SDS011;35290;39.550;8.786;2022-11-13T00:51:30;10.18;;;6.10;;
49416;SDS011;35290;39.550;8.786;2022-11-13T00:53:55;11.00;;;7.03;;
49416;SDS011;35290;39.550;8.786;2022-11-13T00:56:21;13.02;;;7.72;;
49416;SDS011;35290;39.550;8.786;2022-11-13T00:58:46;15.00;;;9.45;;
49416;SDS011;35290;39.550;8.786;2022-11-13T01:01:13;17.15;;;9.10;;
49416;SDS011;35290;39.550;8.786;2022-11-13T01:03:40;18.58;;;9.13;;
49416;SDS011;35290;39.550;8.786;2022-11-13T01:06:15;18.10;;;9.90;;
49416;SDS011;35290;39.550;8.786;2022-11-13T01:08:42;17.55;;;10.07;;
49416;SDS011;35290;39.550;8.786;2022-11-13T01:11:09;22.10;;;10.05;;
49416;SDS011;35290;39.550;8.786;2022-11-13T01:13:39;18.83;;;9.32;;
49416;SDS011;35290;39.550;8.786;2022-11-13T01:16:07;20.02;;;10.77;;
49416;SDS011;35290;39.550;8.786;2022-11-13T01:18:34;21.40;;;11.50;;
49416;SDS011;35290;39.550;8.786;2022-11-13T01:21:19;17.30;;;10.48;;
49416;SDS011;35290;39.550;8.786;2022-11-13T01:23:45;22.33;;;10.70;;
49416;SDS011;35290;39.550;8.786;2022-11-13T01:26:15;13.65;;;8.95;;
49416;SDS011;35290;39.550;8.786;2022-11-13T01:28:42;15.23;;;7.83;;
49416;SDS011;35290;39.550;8.786;2022-11-13T01:31:13;12.82;;;8.35;;
49416;SDS011;35290;39.550;8.786;2022-11-13T01:36:07;13.63;;;8.00;;
49416;SDS011;35290;39.550;8.786;2022-11-13T01:38:35;16.98;;;8.45;;
49416;SDS011;35290;39.550;8.786;2022-11-13T01:41:00;12.02;;;7.93;;
49416;SDS011;35290;39.550;8.786;2022-11-13T01:43:30;11.57;;;7.50;;
49416;SDS011;35290;39.550;8.786;2022-11-13T01:48:23;13.25;;;7.97;;
49416;SDS011;35290;39.550;8.786;2022-11-13T01:50:51;12.07;;;8.10;;
49416;SDS011;35290;39.550;8.786;2022-11-13T01:53:17;13.18;;;8.93;;
49416;SDS011;35290;39.550;8.786;2022-11-13T01:55:43;14.73;;;8.25;;
49416;SDS011;35290;39.550;8.786;2022-11-13T01:58:08;16.70;;;9.00;;
49416;SDS011;35290;39.550;8.786;2022-11-13T02:00:34;14.23;;;8.57;;
49416;SDS011;35290;39.550;8.786;2022-11-13T02:03:00;13.70;;;10.05;;
49416;SDS011;35290;39.550;8.786;2022-11-13T02:05:25;17.23;;;10.95;;
49416;SDS011;35290;39.550;8.786;2022-11-13T02:07:51;16.30;;;10.55;;
49416;SDS011;35290;39.550;8.786;2022-11-13T02:10:17;17.40;;;10.98;;
49416;SDS011;35290;39.550;8.786;2022-11-13T02:12:44;16.27;;;10.55;;
49416;SDS011;35290;39.550;8.786;2022-11-13T02:15:12;21.63;;;10.73;;
49416;SDS011;35290;39.550;8.786;2022-11-13T02:17:42;16.85;;;11.00;;
49416;SDS011;35290;39.550;8.786;2022-11-13T02:20:10;17.85;;;10.73;;
49416;SDS011;35290;39.550;8.786;2022-11-13T02:23:19;19.13;;;10.05;;
49416;SDS011;35290;39.550;8.786;2022-11-13T02:25:33;16.83;;;10.48;;
49416;SDS011;35290;39.550;8.786;2022-11-13T02:27:59;21.17;;;10.07;;
49416;SDS011;35290;39.550;8.786;2022-11-13T02:30:29;17.05;;;9.63;;
49416;SDS011;35290;39.550;8.786;2022-11-13T02:32:56;16.50;;;9.45;;
49416;SDS011;35290;39.550;8.786;2022-11-13T02:35:40;15.35;;;9.23;;
49416;SDS011;35290;39.550;8.786;2022-11-13T02:38:06;15.65;;;9.32;;
49416;SDS011;35290;39.550;8.786;2022-11-13T02:40:32;18.10;;;9.85;;
49416;SDS011;35290;39.550;8.786;2022-11-13T02:42:58;18.13;;;10.05;;
49416;SDS011;35290;39.550;8.786;2022-11-13T02:45:23;16.35;;;9.00;;
49416;SDS011;35290;39.550;8.786;2022-11-13T02:47:48;15.27;;;9.00;;
49416;SDS011;35290;39.550;8.786;2022-11-13T02:50:14;15.13;;;8.80;;
49416;SDS011;35290;39.550;8.786;2022-11-13T02:52:40;14.57;;;8.93;;
49416;SDS011;35290;39.550;8.786;2022-11-13T02:55:06;16.48;;;8.75;;
49416;SDS011;35290;39.550;8.786;2022-11-13T02:57:32;16.65;;;8.88;;
49416;SDS011;35290;39.550;8.786;2022-11-13T02:59:57;17.25;;;8.98;;
49416;SDS011;35290;39.550;8.786;2022-11-13T03:02:23;15.05;;;9.15;;
49416;SDS011;35290;39.550;8.786;2022-11-13T03:04:48;13.43;;;9.23;;
49416;SDS011;35290;39.550;8.786;2022-11-13T03:07:14;13.65;;;9.73;;
49416;SDS011;35290;39.550;8.786;2022-11-13T03:09:39;14.60;;;9.10;;
49416;SDS011;35290;39.550;8.786;2022-11-13T03:12:08;16.33;;;9.27;;
49416;SDS011;35290;39.550;8.786;2022-11-13T03:14:34;12.07;;;8.63;;
49416;SDS011;35290;39.550;8.786;2022-11-13T03:17:00;14.75;;;8.85;;
49416;SDS011;35290;39.550;8.786;2022-11-13T03:19:26;15.02;;;9.30;;
49416;SDS011;35290;39.550;8.786;2022-11-13T03:21:52;12.45;;;8.88;;
49416;SDS011;35290;39.550;8.786;2022-11-13T03:24:18;12.68;;;8.45;;
49416;SDS011;35290;39.550;8.786;2022-11-13T03:26:43;14.32;;;8.43;;
49416;SDS011;35290;39.550;8.786;2022-11-13T03:29:09;16.10;;;9.75;;
49416;SDS011;35290;39.550;8.786;2022-11-13T03:31:34;18.15;;;9.27;;
49416;SDS011;35290;39.550;8.786;2022-11-13T03:34:00;14.43;;;8.88;;
49416;SDS011;35290;39.550;8.786;2022-11-13T03:36:25;15.70;;;9.10;;
49416;SDS011;35290;39.550;8.786;2022-11-13T03:38:51;17.55;;;9.20;;
49416;SDS011;35290;39.550;8.786;2022-11-13T03:41:16;14.93;;;8.32;;
49416;SDS011;35290;39.550;8.786;2022-11-13T03:43:42;12.95;;;8.48;;
49416;SDS011;35290;39.550;8.786;2022-11-13T03:46:08;12.80;;;8.90;;
49416;SDS011;35290;39.550;8.786;2022-11-13T03:48:33;15.15;;;8.65;;
49416;SDS011;35290;39.550;8.786;2022-11-13T03:50:59;16.90;;;8.07;;
49416;SDS011;35290;39.550;8.786;2022-11-13T03:53:25;16.33;;;8.13;;
49416;SDS011;35290;39.550;8.786;2022-11-13T03:55:50;11.02;;;7.47;;
49416;SDS011;35290;39.550;8.786;2022-11-13T03:58:16;12.88;;;7.85;;
49416;SDS011;35290;39.550;8.786;2022-11-13T04:00:42;11.95;;;7.40;;
49416;SDS011;35290;39.550;8.786;2022-11-13T04:03:08;13.48;;;7.90;;
49416;SDS011;35290;39.550;8.786;2022-11-13T04:05:34;15.38;;;7.80;;
49416;SDS011;35290;39.550;8.786;2022-11-13T04:07:59;9.90;;;7.35;;
49416;SDS011;35290;39.550;8.786;2022-11-13T04:10:25;12.32;;;8.40;;
49416;SDS011;35290;39.550;8.786;2022-11-13T04:12:51;12.02;;;8.35;;
49416;SDS011;35290;39.550;8.786;2022-11-13T04:15:16;11.80;;;7.65;;
49416;SDS011;35290;39.550;8.786;2022-11-13T04:17:41;12.38;;;7.45;;
49416;SDS011;35290;39.550;8.786;2022-11-13T04:20:07;9.93;;;7.05;;
49416;SDS011;35290;39.550;8.786;2022-11-13T04:22:33;11.88;;;7.28;;
49416;SDS011;35290;39.550;8.786;2022-11-13T04:24:58;10.68;;;7.43;;
49416;SDS011;35290;39.550;8.786;2022-11-13T04:27:24;9.82;;;7.55;;
49416;SDS011;35290;39.550;8.786;2022-11-13T04:29:49;11.00;;;7.70;;
49416;SDS011;35290;39.550;8.786;2022-11-13T04:32:15;12.25;;;7.75;;
49416;SDS011;35290;39.550;8.786;2022-11-13T04:34:40;11.75;;;7.93;;
49416;SDS011;35290;39.550;8.786;2022-11-13T04:37:06;10.48;;;7.35;;
49416;SDS011;35290;39.550;8.786;2022-11-13T04:39:31;7.18;;;5.97;;
49416;SDS011;35290;39.550;8.786;2022-11-13T04:41:57;7.70;;;5.70;;
49416;SDS011;35290;39.550;8.786;2022-11-13T04:44:41;6.80;;;5.93;;
49416;SDS011;35290;39.550;8.786;2022-11-13T04:47:06;8.07;;;5.97;;
49416;SDS011;35290;39.550;8.786;2022-11-13T04:49:32;10.23;;;5.43;;
49416;SDS011;35290;39.550;8.786;2022-11-13T04:51:57;6.57;;;5.75;;
49416;SDS011;35290;39.550;8.786;2022-11-13T04:54:23;6.50;;;5.28;;
49416;SDS011;35290;39.550;8.786;2022-11-13T04:56:48;5.75;;;5.03;;
49416;SDS011;35290;39.550;8.786;2022-11-13T04:59:14;5.82;;;5.03;;
49416;SDS011;35290;39.550;8.786;2022-11-13T05:01:39;7.10;;;5.38;;
49416;SDS011;35290;39.550;8.786;2022-11-13T05:04:05;6.13;;;5.18;;
49416;SDS011;35290;39.550;8.786;2022-11-13T05:06:30;7.47;;;5.07;;
49416;SDS011;35290;39.550;8.786;2022-11-13T05:08:56;7.78;;;5.90;;
49416;SDS011;35290;39.550;8.786;2022-11-13T05:11:21;6.88;;;5.50;;
49416;SDS011;35290;39.550;8.786;2022-11-13T05:13:47;6.88;;;5.22;;
49416;SDS011;35290;39.550;8.786;2022-11-13T05:16:13;6.70;;;5.50;;
49416;SDS011;35290;39.550;8.786;2022-11-13T05:18:39;9.32;;;6.63;;
49416;SDS011;35290;39.550;8.786;2022-11-13T05:21:05;7.93;;;6.65;;
49416;SDS011;35290;39.550;8.786;2022-11-13T05:23:31;9.90;;;6.80;;
49416;SDS011;35290;39.550;8.786;2022-11-13T05:26:04;8.40;;;6.97;;
49416;SDS011;35290;39.550;8.786;2022-11-13T05:28:34;10.07;;;7.18;;
49416;SDS011;35290;39.550;8.786;2022-11-13T05:31:03;9.55;;;6.80;;
49416;SDS011;35290;39.550;8.786;2022-11-13T05:33:39;11.25;;;7.13;;
49416;SDS011;35290;39.550;8.786;2022-11-13T05:36:07;10.52;;;7.53;;
49416;SDS011;35290;39.550;8.786;2022-11-13T05:38:34;9.95;;;6.95;;
49416;SDS011;35290;39.550;8.786;2022-11-13T05:41:01;10.43;;;7.38;;
49416;SDS011;35290;39.550;8.786;2022-11-13T05:43:31;11.95;;;7.20;;
49416;SDS011;35290;39.550;8.786;2022-11-13T05:48:30;11.00;;;7.07;;
49416;SDS011;35290;39.550;8.786;2022-11-13T05:51:00;9.65;;;6.57;;
49416;SDS011;35290;39.550;8.786;2022-11-13T05:53:27;14.82;;;6.93;;
49416;SDS011;35290;39.550;8.786;2022-11-13T05:55:53;11.45;;;6.90;;
49416;SDS011;35290;39.550;8.786;2022-11-13T05:58:18;7.97;;;6.60;;
49416;SDS011;35290;39.550;8.786;2022-11-13T06:00:44;9.77;;;6.53;;
49416;SDS011;35290;39.550;8.786;2022-11-13T06:03:09;10.25;;;7.18;;
49416;SDS011;35290;39.550;8.786;2022-11-13T06:05:35;9.75;;;7.15;;
49416;SDS011;35290;39.550;8.786;2022-11-13T06:08:00;9.50;;;6.70;;
49416;SDS011;35290;39.550;8.786;2022-11-13T06:10:26;9.95;;;6.40;;
49416;SDS011;35290;39.550;8.786;2022-11-13T06:12:53;8.63;;;6.95;;
49416;SDS011;35290;39.550;8.786;2022-11-13T06:15:18;9.43;;;6.40;;
49416;SDS011;35290;39.550;8.786;2022-11-13T06:17:44;8.30;;;6.13;;
49416;SDS011;35290;39.550;8.786;2022-11-13T06:20:10;8.70;;;6.47;;
49416;SDS011;35290;39.550;8.786;2022-11-13T06:22:36;8.85;;;6.57;;
49416;SDS011;35290;39.550;8.786;2022-11-13T06:25:01;10.32;;;6.85;;
49416;SDS011;35290;39.550;8.786;2022-11-13T06:27:27;9.85;;;6.95;;
49416;SDS011;35290;39.550;8.786;2022-11-13T06:29:52;10.27;;;7.20;;
49416;SDS011;35290;39.550;8.786;2022-11-13T06:32:18;14.60;;;7.45;;
49416;SDS011;35290;39.550;8.786;2022-11-13T06:34:43;10.05;;;7.25;;
49416;SDS011;35290;39.550;8.786;2022-11-13T06:37:08;10.15;;;6.78;;
49416;SDS011;35290;39.550;8.786;2022-11-13T06:39:34;8.93;;;6.65;;
49416;SDS011;35290;39.550;8.786;2022-11-13T06:41:59;9.07;;;6.50;;
49416;SDS011;35290;39.550;8.786;2022-11-13T06:44:25;11.23;;;6.75;;
49416;SDS011;35290;39.550;8.786;2022-11-13T06:46:50;10.00;;;7.20;;
49416;SDS011;35290;39.550;8.786;2022-11-13T06:49:16;10.70;;;7.07;;
49416;SDS011;35290;39.550;8.786;2022-11-13T06:51:41;11.15;;;7.15;;
49416;SDS011;35290;39.550;8.786;2022-11-13T06:54:07;10.35;;;6.72;;
49416;SDS011;35290;39.550;8.786;2022-11-13T06:56:32;13.93;;;6.93;;
49416;SDS011;35290;39.550;8.786;2022-11-13T06:58:58;11.40;;;6.72;;
49416;SDS011;35290;39.550;8.786;2022-11-13T07:01:24;12.68;;;7.50;;
49416;SDS011;35290;39.550;8.786;2022-11-13T07:03:50;9.93;;;7.03;;
49416;SDS011;35290;39.550;8.786;2022-11-13T07:06:17;10.20;;;6.93;;
49416;SDS011;35290;39.550;8.786;2022-11-13T07:08:45;8.60;;;6.43;;
49416;SDS011;35290;39.550;8.786;2022-11-13T07:11:14;12.18;;;6.68;;
49416;SDS011;35290;39.550;8.786;2022-11-13T07:13:42;9.20;;;6.15;;
49416;SDS011;35290;39.550;8.786;2022-11-13T07:16:08;12.57;;;7.60;;
49416;SDS011;35290;39.550;8.786;2022-11-13T07:18:35;13.75;;;8.40;;
49416;SDS011;35290;39.550;8.786;2022-11-13T07:21:05;15.98;;;7.63;;
49416;SDS011;35290;39.550;8.786;2022-11-13T07:23:32;14.52;;;8.30;;
49416;SDS011;35290;39.550;8.786;2022-11-13T07:25:58;16.85;;;9.52;;
49416;SDS011;35290;39.550;8.786;2022-11-13T07:28:24;14.32;;;8.73;;
49416;SDS011;35290;39.550;8.786;2022-11-13T07:30:49;14.93;;;8.68;;
49416;SDS011;35290;39.550;8.786;2022-11-13T07:33:15;12.07;;;8.35;;
49416;SDS011;35290;39.550;8.786;2022-11-13T07:35:40;13.25;;;8.63;;
49416;SDS011;35290;39.550;8.786;2022-11-13T07:38:06;16.90;;;9.00;;
49416;SDS011;35290;39.550;8.786;2022-11-13T07:40:32;12.55;;;8.70;;
49416;SDS011;35290;39.550;8.786;2022-11-13T07:42:58;14.65;;;9.00;;
49416;SDS011;35290;39.550;8.786;2022-11-13T07:45:25;15.77;;;8.27;;
49416;SDS011;35290;39.550;8.786;2022-11-13T07:47:55;17.45;;;8.40;;
49416;SDS011;35290;39.550;8.786;2022-11-13T07:50:22;9.43;;;7.53;;
49416;SDS011;35290;39.550;8.786;2022-11-13T07:52:47;14.57;;;8.18;;
49416;SDS011;35290;39.550;8.786;2022-11-13T07:55:13;14.68;;;7.25;;
49416;SDS011;35290;39.550;8.786;2022-11-13T07:57:39;10.90;;;6.75;;
49416;SDS011;35290;39.550;8.786;2022-11-13T08:00:04;12.30;;;6.63;;
49416;SDS011;35290;39.550;8.786;2022-11-13T08:02:30;11.70;;;6.75;;
49416;SDS011;35290;39.550;8.786;2022-11-13T08:04:55;12.65;;;6.45;;
49416;SDS011;35290;39.550;8.786;2022-11-13T08:07:21;9.80;;;5.80;;
49416;SDS011;35290;39.550;8.786;2022-11-13T08:09:46;10.40;;;6.10;;
49416;SDS011;35290;39.550;8.786;2022-11-13T08:12:12;9.52;;;6.05;;
49416;SDS011;35290;39.550;8.786;2022-11-13T08:14:38;10.27;;;5.80;;
49416;SDS011;35290;39.550;8.786;2022-11-13T08:17:03;10.95;;;6.38;;
49416;SDS011;35290;39.550;8.786;2022-11-13T08:19:29;12.48;;;6.25;;
49416;SDS011;35290;39.550;8.786;2022-11-13T08:21:54;8.55;;;6.07;;
49416;SDS011;35290;39.550;8.786;2022-11-13T08:24:20;11.73;;;6.55;;
49416;SDS011;35290;39.550;8.786;2022-11-13T08:26:45;10.75;;;6.45;;
49416;SDS011;35290;39.550;8.786;2022-11-13T08:29:11;11.68;;;6.05;;
49416;SDS011;35290;39.550;8.786;2022-11-13T08:31:36;11.02;;;6.45;;
49416;SDS011;35290;39.550;8.786;2022-11-13T08:34:01;14.90;;;6.20;;
49416;SDS011;35290;39.550;8.786;2022-11-13T08:36:27;16.77;;;5.88;;
49416;SDS011;35290;39.550;8.786;2022-11-13T08:38:52;8.25;;;5.60;;
49416;SDS011;35290;39.550;8.786;2022-11-13T08:41:18;8.00;;;5.40;;
49416;SDS011;35290;39.550;8.786;2022-11-13T08:43:43;9.48;;;5.80;;
49416;SDS011;35290;39.550;8.786;2022-11-13T08:46:09;9.88;;;6.07;;
49416;SDS011;35290;39.550;8.786;2022-11-13T08:48:35;10.73;;;5.57;;
49416;SDS011;35290;39.550;8.786;2022-11-13T08:51:02;10.43;;;7.53;;
49416;SDS011;35290;39.550;8.786;2022-11-13T08:53:28;12.05;;;8.55;;
49416;SDS011;35290;39.550;8.786;2022-11-13T08:55:53;14.60;;;9.73;;
49416;SDS011;35290;39.550;8.786;2022-11-13T08:58:19;12.70;;;8.63;;
49416;SDS011;35290;39.550;8.786;2022-11-13T09:00:45;17.73;;;11.07;;
49416;SDS011;35290;39.550;8.786;2022-11-13T09:03:11;22.63;;;12.60;;
49416;SDS011;35290;39.550;8.786;2022-11-13T09:05:37;17.80;;;10.52;;
49416;SDS011;35290;39.550;8.786;2022-11-13T09:08:02;15.13;;;8.90;;
49416;SDS011;35290;39.550;8.786;2022-11-13T09:10:28;14.60;;;7.85;;
49416;SDS011;35290;39.550;8.786;2022-11-13T09:13:04;14.07;;;7.25;;
49416;SDS011;35290;39.550;8.786;2022-11-13T09:15:31;7.88;;;4.68;;
49416;SDS011;35290;39.550;8.786;2022-11-13T09:18:00;7.90;;;4.00;;
49416;SDS011;35290;39.550;8.786;2022-11-13T09:20:27;6.00;;;3.50;;
49416;SDS011;35290;39.550;8.786;2022-11-13T09:25:26;6.93;;;2.33;;
49416;SDS011;35290;39.550;8.786;2022-11-13T09:27:57;9.40;;;2.60;;
49416;SDS011;35290;39.550;8.786;2022-11-13T09:30:23;5.60;;;2.40;;
49416;SDS011;35290;39.550;8.786;2022-11-13T09:32:53;6.40;;;2.75;;
49416;SDS011;35290;39.550;8.786;2022-11-13T09:35:20;5.82;;;2.35;;
49416;SDS011;35290;39.550;8.786;2022-11-13T09:38:08;3.92;;;2.20;;
49416;SDS011;35290;39.550;8.786;2022-11-13T09:43:09;8.82;;;3.10;;
49416;SDS011;35290;39.550;8.786;2022-11-13T09:45:39;8.90;;;2.50;;
49416;SDS011;35290;39.550;8.786;2022-11-13T09:50:48;5.85;;;2.58;;
49416;SDS011;35290;39.550;8.786;2022-11-13T09:53:15;7.60;;;2.90;;
49416;SDS011;35290;39.550;8.786;2022-11-13T09:55:44;5.40;;;3.03;;
49416;SDS011;35290;39.550;8.786;2022-11-13T10:01:11;10.47;;;4.20;;
49416;SDS011;35290;39.550;8.786;2022-11-13T10:03:44;9.88;;;3.38;;
49416;SDS011;35290;39.550;8.786;2022-11-13T10:09:08;9.43;;;2.90;;
49416;SDS011;35290;39.550;8.786;2022-11-13T10:11:55;4.93;;;2.50;;
49416;SDS011;35290;39.550;8.786;2022-11-13T10:14:24;5.15;;;2.80;;
49416;SDS011;35290;39.550;8.786;2022-11-13T10:16:54;7.18;;;3.20;;
49416;SDS011;35290;39.550;8.786;2022-11-13T10:19:26;7.35;;;3.70;;
49416;SDS011;35290;39.550;8.786;2022-11-13T10:21:55;9.57;;;3.45;;
49416;SDS011;35290;39.550;8.786;2022-11-13T10:24:35;8.98;;;3.30;;
49416;SDS011;35290;39.550;8.786;2022-11-13T10:27:04;9.38;;;2.78;;
49416;SDS011;35290;39.550;8.786;2022-11-13T10:29:34;7.22;;;2.97;;
49416;SDS011;35290;39.550;8.786;2022-11-13T10:32:13;9.65;;;3.10;;
49416;SDS011;35290;39.550;8.786;2022-11-13T10:34:52;6.50;;;3.08;;
49416;SDS011;35290;39.550;8.786;2022-11-13T10:40:27;5.43;;;2.67;;
49416;SDS011;35290;39.550;8.786;2022-11-13T10:45:52;6.63;;;3.40;;
49416;SDS011;35290;39.550;8.786;2022-11-13T10:50:57;6.88;;;2.90;;
49416;SDS011;35290;39.550;8.786;2022-11-13T10:53:25;11.43;;;3.35;;
49416;SDS011;35290;39.550;8.786;2022-11-13T10:55:55;9.43;;;3.63;;
49416;SDS011;35290;39.550;8.786;2022-11-13T10:58:21;9.50;;;3.42;;
49416;SDS011;35290;39.550;8.786;2022-11-13T11:00:47;11.02;;;3.40;;
49416;SDS011;35290;39.550;8.786;2022-11-13T11:03:18;7.60;;;3.47;;
49416;SDS011;35290;39.550;8.786;2022-11-13T11:06:18;6.88;;;3.20;;
49416;SDS011;35290;39.550;8.786;2022-11-13T11:08:36;7.85;;;3.17;;
49416;SDS011;35290;39.550;8.786;2022-11-13T11:11:23;6.53;;;2.95;;
49416;SDS011;35290;39.550;8.786;2022-11-13T11:14:15;7.68;;;3.15;;
49416;SDS011;35290;39.550;8.786;2022-11-13T11:16:46;6.18;;;2.92;;
49416;SDS011;35290;39.550;8.786;2022-11-13T11:19:13;10.50;;;3.70;;
49416;SDS011;35290;39.550;8.786;2022-11-13T11:21:40;5.35;;;3.17;;
49416;SDS011;35290;39.550;8.786;2022-11-13T11:24:20;5.13;;;3.08;;
49416;SDS011;35290;39.550;8.786;2022-11-13T11:27:05;5.93;;;3.40;;
49416;SDS011;35290;39.550;8.786;2022-11-13T11:33:08;14.80;;;7.50;;
49416;SDS011;35290;39.550;8.786;2022-11-13T11:38:09;12.57;;;5.82;;
49416;SDS011;35290;39.550;8.786;2022-11-13T11:40:43;10.35;;;4.95;;
49416;SDS011;35290;39.550;8.786;2022-11-13T11:43:19;8.48;;;3.67;;
49416;SDS011;35290;39.550;8.786;2022-11-13T11:45:46;7.55;;;3.80;;
49416;SDS011;35290;39.550;8.786;2022-11-13T11:48:25;8.02;;;3.95;;
49416;SDS011;35290;39.550;8.786;2022-11-13T11:56:34;6.90;;;3.55;;
49416;SDS011;35290;39.550;8.786;2022-11-13T12:10:03;7.97;;;3.60;;
49416;SDS011;35290;39.550;8.786;2022-11-13T12:30:16;7.22;;;2.80;;
49416;SDS011;35290;39.550;8.786;2022-11-13T12:35:19;6.75;;;2.72;;
49416;SDS011;35290;39.550;8.786;2022-11-13T12:38:04;5.63;;;2.47;;
49416;SDS011;35290;39.550;8.786;2022-11-13T12:40:50;8.00;;;2.45;;
49416;SDS011;35290;39.550;8.786;2022-11-13T12:43:43;4.65;;;2.50;;
49416;SDS011;35290;39.550;8.786;2022-11-13T12:46:37;4.63;;;2.70;;
49416;SDS011;35290;39.550;8.786;2022-11-13T12:49:14;7.68;;;3.00;;
49416;SDS011;35290;39.550;8.786;2022-11-13T12:54:30;5.25;;;3.13;;
49416;SDS011;35290;39.550;8.786;2022-11-13T12:59:41;5.03;;;2.63;;
49416;SDS011;35290;39.550;8.786;2022-11-13T13:02:16;4.37;;;2.93;;
49416;SDS011;35290;39.550;8.786;2022-11-13T13:07:20;7.03;;;3.97;;
49416;SDS011;35290;39.550;8.786;2022-11-13T13:12:45;7.00;;;2.90;;
49416;SDS011;35290;39.550;8.786;2022-11-13T13:18:09;5.57;;;2.70;;
49416;SDS011;35290;39.550;8.786;2022-11-13T13:20:43;7.13;;;3.45;;
49416;SDS011;35290;39.550;8.786;2022-11-13T13:23:11;6.10;;;3.30;;
49416;SDS011;35290;39.550;8.786;2022-11-13T13:25:37;8.90;;;3.30;;
49416;SDS011;35290;39.550;8.786;2022-11-13T13:30:44;3.35;;;2.47;;
49416;SDS011;35290;39.550;8.786;2022-11-13T13:39:18;4.30;;;2.88;;
49416;SDS011;35290;39.550;8.786;2022-11-13T13:47:06;6.10;;;3.22;;
49416;SDS011;35290;39.550;8.786;2022-11-13T13:49:44;4.30;;;2.95;;
49416;SDS011;35290;39.550;8.786;2022-11-13T13:52:11;5.90;;;3.15;;
49416;SDS011;35290;39.550;8.786;2022-11-13T13:54:39;5.55;;;3.05;;
49416;SDS011;35290;39.550;8.786;2022-11-13T13:57:08;6.53;;;3.58;;
49416;SDS011;35290;39.550;8.786;2022-11-13T13:59:37;6.65;;;3.92;;
49416;SDS011;35290;39.550;8.786;2022-11-13T14:02:11;4.60;;;3.25;;
49416;SDS011;35290;39.550;8.786;2022-11-13T14:04:43;6.00;;;2.95;;
49416;SDS011;35290;39.550;8.786;2022-11-13T14:07:26;7.10;;;2.80;;
49416;SDS011;35290;39.550;8.786;2022-11-13T14:12:39;5.78;;;2.67;;
49416;SDS011;35290;39.550;8.786;2022-11-13T14:15:17;5.63;;;3.00;;
49416;SDS011;35290;39.550;8.786;2022-11-13T14:18:15;5.57;;;2.40;;
49416;SDS011;35290;39.550;8.786;2022-11-13T14:23:17;4.47;;;2.50;;
49416;SDS011;35290;39.550;8.786;2022-11-13T14:25:45;2.70;;;2.38;;
49416;SDS011;35290;39.550;8.786;2022-11-13T14:28:14;4.00;;;2.35;;
49416;SDS011;35290;39.550;8.786;2022-11-13T14:30:41;3.55;;;1.80;;
49416;SDS011;35290;39.550;8.786;2022-11-13T14:33:08;2.70;;;1.67;;
49416;SDS011;35290;39.550;8.786;2022-11-13T14:35:35;4.07;;;2.00;;
49416;SDS011;35290;39.550;8.786;2022-11-13T14:38:02;3.92;;;1.80;;
49416;SDS011;35290;39.550;8.786;2022-11-13T14:40:28;4.00;;;1.58;;
49416;SDS011;35290;39.550;8.786;2022-11-13T14:42:59;2.63;;;1.67;;
49416;SDS011;35290;39.550;8.786;2022-11-13T14:45:28;4.45;;;1.60;;
49416;SDS011;35290;39.550;8.786;2022-11-13T14:50:34;5.30;;;1.83;;
49416;SDS011;35290;39.550;8.786;2022-11-13T14:53:02;3.63;;;1.50;;
49416;SDS011;35290;39.550;8.786;2022-11-13T14:55:32;2.83;;;1.80;;
49416;SDS011;35290;39.550;8.786;2022-11-13T14:58:00;2.50;;;1.50;;
49416;SDS011;35290;39.550;8.786;2022-11-13T15:00:29;4.00;;;1.40;;
49416;SDS011;35290;39.550;8.786;2022-11-13T15:03:00;3.47;;;1.35;;
49416;SDS011;35290;39.550;8.786;2022-11-13T15:05:26;3.20;;;1.60;;
49416;SDS011;35290;39.550;8.786;2022-11-13T15:07:52;4.28;;;1.40;;
49416;SDS011;35290;39.550;8.786;2022-11-13T15:10:19;4.90;;;1.90;;
49416;SDS011;35290;39.550;8.786;2022-11-13T15:12:46;3.33;;;2.22;;
49416;SDS011;35290;39.550;8.786;2022-11-13T15:15:13;4.90;;;2.72;;
49416;SDS011;35290;39.550;8.786;2022-11-13T15:17:44;8.20;;;3.17;;
49416;SDS011;35290;39.550;8.786;2022-11-13T15:20:21;4.40;;;2.92;;
49416;SDS011;35290;39.550;8.786;2022-11-13T15:22:49;5.90;;;3.80;;
49416;SDS011;35290;39.550;8.786;2022-11-13T15:25:18;15.88;;;10.63;;
49416;SDS011;35290;39.550;8.786;2022-11-13T15:27:44;34.80;;;21.85;;
49416;SDS011;35290;39.550;8.786;2022-11-13T15:30:10;23.88;;;16.45;;
49416;SDS011;35290;39.550;8.786;2022-11-13T15:32:37;18.02;;;12.85;;
49416;SDS011;35290;39.550;8.786;2022-11-13T15:35:04;12.60;;;5.22;;
49416;SDS011;35290;39.550;8.786;2022-11-13T15:37:30;7.00;;;3.63;;
49416;SDS011;35290;39.550;8.786;2022-11-13T15:39:55;6.30;;;3.08;;
49416;SDS011;35290;39.550;8.786;2022-11-13T15:42:25;4.88;;;2.65;;
49416;SDS011;35290;39.550;8.786;2022-11-13T15:44:52;6.57;;;3.00;;
49416;SDS011;35290;39.550;8.786;2022-11-13T15:47:25;5.50;;;3.00;;
49416;SDS011;35290;39.550;8.786;2022-11-13T15:49:52;7.47;;;3.10;;
49416;SDS011;35290;39.550;8.786;2022-11-13T15:52:18;6.78;;;3.17;;
49416;SDS011;35290;39.550;8.786;2022-11-13T15:54:44;5.28;;;3.22;;
49416;SDS011;35290;39.550;8.786;2022-11-13T15:57:15;4.05;;;2.85;;
49416;SDS011;35290;39.550;8.786;2022-11-13T15:59:43;4.72;;;2.60;;
49416;SDS011;35290;39.550;8.786;2022-11-13T16:02:09;6.38;;;2.90;;
49416;SDS011;35290;39.550;8.786;2022-11-13T16:04:35;5.47;;;3.03;;
49416;SDS011;35290;39.550;8.786;2022-11-13T16:07:03;4.93;;;2.90;;
49416;SDS011;35290;39.550;8.786;2022-11-13T16:09:31;7.70;;;3.05;;
49416;SDS011;35290;39.550;8.786;2022-11-13T16:11:57;5.70;;;3.13;;
49416;SDS011;35290;39.550;8.786;2022-11-13T16:14:24;4.90;;;2.95;;
49416;SDS011;35290;39.550;8.786;2022-11-13T16:16:49;4.95;;;3.03;;
49416;SDS011;35290;39.550;8.786;2022-11-13T16:19:20;7.03;;;3.17;;
49416;SDS011;35290;39.550;8.786;2022-11-13T16:21:47;8.23;;;3.67;;
49416;SDS011;35290;39.550;8.786;2022-11-13T16:24:13;6.60;;;3.70;;
49416;SDS011;35290;39.550;8.786;2022-11-13T16:26:38;9.50;;;4.68;;
49416;SDS011;35290;39.550;8.786;2022-11-13T16:29:15;8.43;;;5.30;;
49416;SDS011;35290;39.550;8.786;2022-11-13T16:31:43;8.20;;;5.22;;
49416;SDS011;35290;39.550;8.786;2022-11-13T16:34:08;7.95;;;5.43;;